パゴパゴ の空港の天気 - METARとTAF

パゴパゴ国際空港 ( NSTU / PPG ) - アメリカ領サモア パゴパゴ
飛行場実況気象(Metar)
観測時間01/28 20:50 SST (01/29 07:50 UTC)
風向・風速東 6m/s
視程10km以上
天気現象
全天の4割程度の雲 雲底高度 580m
気温28.6℃
湿度84%
気圧1012.7hPa
METARNSTU 290750Z 09012KT 10SM SCT019 29/26 A2991 RMK SLP127 T02860257
過去の天気等 Google飛行場航空写真 Wunderground天気予報

過去48時間のMETAR

飛行場予報(TAF)
発表時間: 1/28 18:32 SST (1/29 05:32 UTC)
予報対象時間: 28日19時 SST ~ 29日19時 SST
風向・風速東 6m/s
視程10km以上
天気現象周辺でしゅう雨
全天の4割程度の雲 雲底高度 610m
全天の4割程度の雲 雲底高度 1220m
29日1時 SST から
風向・風速東 6m/s
視程10km以上
全天の4割程度の雲 雲底高度 610m
全天の4割程度の雲 雲底高度 1220m
29日18時 SST から
風向・風速東 4m/s
視程10km以上
天気現象周辺でしゅう雨
全天の4割程度の雲 雲底高度 610m
全天の4割程度の雲 雲底高度 1220m
NSTU 290532Z 2906/3006 08012KT P6SM VCSH SCT020 SCT040
FM291200 09011KT P6SM SCT020 SCT040
FM300500 08007KT P6SM VCSH SCT020 SCT040